createdAt,value
2022-10-31T00:00:53.434Z,99283.03
2022-10-31T00:03:19.984Z,99286.06
2022-10-31T00:05:49.357Z,99284.03
2022-10-31T00:08:16.695Z,99292.44
2022-10-31T00:10:44.836Z,99280.13
2022-10-31T00:13:13.170Z,99287.16
2022-10-31T00:15:41.036Z,99283.53
2022-10-31T00:18:09.524Z,99282.22
2022-10-31T00:20:36.202Z,99288.91
2022-10-31T00:23:03.117Z,99294.56
2022-10-31T00:25:33.613Z,99290.59
2022-10-31T00:28:00.523Z,99288.94
2022-10-31T00:30:27.472Z,99301.59
2022-10-31T00:32:53.889Z,99291.28
2022-10-31T00:35:20.211Z,99293.25
2022-10-31T00:37:46.738Z,99288.94
2022-10-31T00:40:13.079Z,99667.34
2022-10-31T00:42:42.587Z,99670.81
2022-10-31T00:45:10.500Z,99673.00
2022-10-31T00:47:37.156Z,99670.47
2022-10-31T00:50:05.402Z,99668.50
2022-10-31T00:52:31.742Z,99672.81
2022-10-31T00:54:58.139Z,99673.81
2022-10-31T00:57:24.561Z,99671.47
2022-10-31T00:59:51.026Z,99670.78
2022-10-31T01:02:18.046Z,99657.34
2022-10-31T01:04:44.715Z,99654.13
2022-10-31T01:07:11.236Z,99658.97
2022-10-31T01:09:37.678Z,99652.13
2022-10-31T01:12:04.565Z,99655.78
2022-10-31T01:14:30.952Z,99655.78
2022-10-31T01:16:57.559Z,99658.63
2022-10-31T01:19:24.187Z,99655.28
2022-10-31T01:21:50.864Z,99660.78
2022-10-31T01:24:17.482Z,99660.13
2022-10-31T01:26:43.834Z,99665.44
2022-10-31T01:29:10.191Z,99660.59
2022-10-31T01:31:39.908Z,99648.97
2022-10-31T01:34:07.104Z,99642.13
2022-10-31T01:36:39.112Z,99637.81
2022-10-31T01:39:13.294Z,99639.47
2022-10-31T01:41:44.980Z,99631.63
2022-10-31T01:44:14.452Z,99636.44
2022-10-31T01:46:44.649Z,99628.47
2022-10-31T01:49:21.859Z,99631.13
2022-10-31T01:51:59.513Z,99635.78
2022-10-31T01:54:33.417Z,99628.13
2022-10-31T01:57:02.490Z,99621.44
2022-10-31T01:59:32.875Z,99630.13
2022-10-31T02:01:59.741Z,99623.13
2022-10-31T02:04:27.127Z,99624.09
2022-10-31T02:07:05.306Z,99617.97
2022-10-31T02:09:33.922Z,99618.97
2022-10-31T02:12:01.126Z,99609.47
2022-10-31T02:14:30.358Z,99624.09
2022-10-31T02:16:57.356Z,99609.97
2022-10-31T02:19:49.439Z,99608.31
2022-10-31T02:22:34.723Z,99611.13
2022-10-31T02:25:14.635Z,99613.28
2022-10-31T02:28:03.885Z,99614.75
2022-10-31T02:30:46.422Z,99616.91
2022-10-31T02:33:27.899Z,99616.56
2022-10-31T02:36:06.450Z,99614.56
2022-10-31T02:38:57.944Z,99613.50
2022-10-31T02:41:38.670Z,99613.38
2022-10-31T02:44:17.050Z,99617.19
2022-10-31T02:46:50.360Z,99617.31
2022-10-31T02:49:28.066Z,99620.31
2022-10-31T02:51:54.579Z,99615.00
2022-10-31T02:54:27.386Z,99603.81
2022-10-31T02:57:00.322Z,99615.31
2022-10-31T02:59:27.810Z,99602.03
2022-10-31T03:01:57.263Z,99608.31
2022-10-31T03:04:35.948Z,99605.00
2022-10-31T03:07:20.928Z,99602.34
2022-10-31T03:10:04.033Z,99601.66
2022-10-31T03:12:51.313Z,99601.66
2022-10-31T03:15:26.833Z,99602.03
2022-10-31T03:18:06.962Z,99601.84
2022-10-31T03:21:12.057Z,99600.00
2022-10-31T03:23:40.219Z,99593.69
2022-10-31T03:26:10.592Z,99588.81
2022-10-31T03:28:47.362Z,99585.69
2022-10-31T03:31:18.454Z,99599.69
2022-10-31T03:33:47.107Z,99595.69
2022-10-31T03:36:16.692Z,99604.38
2022-10-31T03:38:45.214Z,99613.69
2022-10-31T03:41:17.688Z,99608.19
2022-10-31T03:43:49.368Z,99605.66
2022-10-31T03:46:15.921Z,99606.81
2022-10-31T03:48:42.273Z,99611.28
2022-10-31T03:51:26.988Z,99605.84
2022-10-31T03:53:58.465Z,99621.63
2022-10-31T03:56:36.241Z,99609.78
2022-10-31T03:59:10.342Z,99606.63
2022-10-31T04:01:42.189Z,99602.97
2022-10-31T04:04:09.470Z,99599.28
2022-10-31T04:06:39.936Z,99609.25
2022-10-31T04:09:10.058Z,99599.91
2022-10-31T04:11:42.197Z,99600.91
2022-10-31T04:14:09.834Z,99593.94
2022-10-31T04:16:36.499Z,99601.72
2022-10-31T04:19:02.946Z,99597.41
2022-10-31T04:21:30.747Z,99599.25
2022-10-31T04:23:58.069Z,99608.88
2022-10-31T04:26:24.422Z,99613.38
2022-10-31T04:28:50.742Z,99602.38
2022-10-31T04:31:17.277Z,99606.16
2022-10-31T04:33:43.810Z,99605.19
2022-10-31T04:36:10.250Z,99596.72
2022-10-31T04:38:36.895Z,99589.69
2022-10-31T04:41:03.427Z,99594.88
2022-10-31T04:43:29.744Z,99596.84
2022-10-31T04:45:56.192Z,99592.53
2022-10-31T04:48:22.839Z,99589.88
2022-10-31T04:50:49.309Z,99575.22
2022-10-31T04:53:15.754Z,99574.56
2022-10-31T04:55:42.177Z,99573.34
2022-10-31T04:58:08.847Z,99564.38
2022-10-31T05:00:35.394Z,99563.88
2022-10-31T05:03:02.293Z,99553.41
2022-10-31T05:05:32.020Z,99556.91
2022-10-31T05:07:58.574Z,99553.56
2022-10-31T05:10:28.334Z,99550.38
2022-10-31T05:12:57.677Z,99554.19
2022-10-31T05:15:26.097Z,99564.59
2022-10-31T05:17:53.507Z,99552.78
2022-10-31T05:20:22.219Z,99554.53
2022-10-31T05:22:54.500Z,99565.94
2022-10-31T05:25:23.257Z,99571.94
2022-10-31T05:27:51.469Z,99584.03
2022-10-31T05:30:21.247Z,99580.69
2022-10-31T05:32:49.843Z,99574.53
2022-10-31T05:35:20.777Z,99570.06
2022-10-31T05:37:47.094Z,99532.03
2022-10-31T05:40:15.137Z,99526.03
2022-10-31T05:42:43.022Z,99510.28
2022-10-31T05:45:11.739Z,99494.50
2022-10-31T05:47:39.304Z,99494.81
2022-10-31T05:50:07.142Z,99485.03
2022-10-31T05:52:34.094Z,99489.19
2022-10-31T05:55:00.748Z,99486.53
2022-10-31T05:57:27.123Z,99493.00
2022-10-31T05:59:55.125Z,99492.16
2022-10-31T06:02:22.529Z,99491.19
2022-10-31T06:04:49.139Z,99498.84
2022-10-31T06:07:15.617Z,99489.19
2022-10-31T06:09:42.079Z,99492.53
2022-10-31T06:12:08.549Z,99490.88
2022-10-31T06:14:34.917Z,99493.34
2022-10-31T06:17:01.553Z,99494.50
2022-10-31T06:19:27.937Z,99496.63
2022-10-31T06:21:54.300Z,99487.84
2022-10-31T06:24:20.774Z,99488.22
2022-10-31T06:26:47.392Z,99488.41
2022-10-31T06:29:13.887Z,99481.28
2022-10-31T06:31:40.579Z,99478.44
2022-10-31T06:34:07.026Z,99482.63
2022-10-31T06:36:33.568Z,99482.16
2022-10-31T06:39:01.503Z,99483.13
2022-10-31T06:41:27.990Z,99485.66
2022-10-31T06:43:54.504Z,99487.69
2022-10-31T06:46:21.150Z,99493.13
2022-10-31T06:48:47.547Z,99490.38
2022-10-31T06:51:14.211Z,99502.34
2022-10-31T06:53:40.618Z,99507.16
2022-10-31T06:56:07.202Z,99500.69
2022-10-31T06:58:34.654Z,99504.56
2022-10-31T07:01:02.158Z,99493.63
2022-10-31T07:03:28.723Z,99492.16
2022-10-31T07:05:58.215Z,99503.44
2022-10-31T07:08:25.454Z,99502.09
2022-10-31T07:10:54.204Z,99509.81
2022-10-31T07:13:20.826Z,99508.44
2022-10-31T07:15:47.138Z,99517.84
2022-10-31T07:18:13.940Z,99525.50
2022-10-31T07:20:40.379Z,99534.50
2022-10-31T07:23:07.054Z,99545.63
2022-10-31T07:25:33.652Z,99557.50
2022-10-31T07:28:00.703Z,99572.63
2022-10-31T07:30:27.463Z,99584.16
2022-10-31T07:32:53.973Z,99584.50
2022-10-31T07:35:25.948Z,99593.56
2022-10-31T07:37:53.188Z,99593.22
2022-10-31T07:40:20.535Z,99615.53
2022-10-31T07:42:49.349Z,99615.91
2022-10-31T07:45:18.698Z,99623.53
2022-10-31T07:47:49.004Z,99565.50
2022-10-31T07:50:18.498Z,99548.84
2022-10-31T07:52:45.460Z,99532.84
2022-10-31T07:55:12.438Z,99191.09
2022-10-31T07:57:39.075Z,99198.09
2022-10-31T08:00:07.055Z,99202.78
2022-10-31T08:02:33.395Z,99205.72
2022-10-31T08:05:01.307Z,99198.50
2022-10-31T08:07:29.324Z,99200.69
2022-10-31T08:09:56.645Z,99194.47
2022-10-31T08:12:23.127Z,99195.06
2022-10-31T08:14:49.516Z,99193.13
2022-10-31T08:17:15.852Z,99190.69
2022-10-31T08:19:42.489Z,99184.13
2022-10-31T08:22:09.040Z,99190.41
2022-10-31T08:24:35.443Z,99186.38
2022-10-31T08:27:01.909Z,99173.88
2022-10-31T08:29:28.377Z,99184.91
2022-10-31T08:31:54.908Z,99178.81
2022-10-31T08:34:21.349Z,99175.59
2022-10-31T08:36:47.771Z,99170.78
2022-10-31T08:39:14.170Z,99164.06
2022-10-31T08:41:40.583Z,99161.28
2022-10-31T08:44:07.014Z,99161.06
2022-10-31T08:46:33.771Z,99161.56
2022-10-31T08:49:01.176Z,99164.66
2022-10-31T08:51:27.828Z,99154.31
2022-10-31T08:53:54.229Z,99159.25
2022-10-31T08:56:20.627Z,99147.31
2022-10-31T08:58:46.967Z,99142.97
2022-10-31T09:01:13.483Z,99140.16
2022-10-31T09:03:40.184Z,99144.91
2022-10-31T09:06:07.022Z,99144.50
2022-10-31T09:08:34.061Z,99138.38
2022-10-31T09:11:00.701Z,99142.00
2022-10-31T09:13:28.296Z,99141.91
2022-10-31T09:15:55.133Z,99139.59
2022-10-31T09:18:23.157Z,99140.31
2022-10-31T09:20:50.876Z,99129.06
2022-10-31T09:23:22.690Z,99129.69
2022-10-31T09:25:51.151Z,99121.13
2022-10-31T09:28:22.143Z,99121.31
2022-10-31T09:30:52.040Z,99124.09
2022-10-31T09:33:19.283Z,99124.09
2022-10-31T09:35:45.890Z,99113.19
2022-10-31T09:38:18.192Z,99115.88
2022-10-31T09:40:47.640Z,99110.53
2022-10-31T09:43:51.485Z,99110.94
2022-10-31T09:46:45.689Z,99104.56
2022-10-31T09:49:19.861Z,99105.56
2022-10-31T09:51:53.125Z,99104.34
2022-10-31T09:54:25.690Z,99099.97
2022-10-31T09:56:52.813Z,99098.13
2022-10-31T09:59:35.116Z,99099.75
2022-10-31T10:02:06.795Z,99086.59
2022-10-31T10:04:44.060Z,99087.31
2022-10-31T10:07:31.744Z,99083.66
2022-10-31T10:10:00.343Z,99086.53
2022-10-31T10:13:03.442Z,99094.50
2022-10-31T10:16:01.406Z,99091.19
2022-10-31T10:18:42.132Z,99087.34
2022-10-31T10:21:23.487Z,99073.91
2022-10-31T10:23:52.580Z,99076.44
2022-10-31T10:26:21.570Z,99078.19
2022-10-31T10:28:58.754Z,99077.13
2022-10-31T10:31:32.298Z,99070.28
2022-10-31T10:34:18.059Z,99076.41
2022-10-31T10:36:58.879Z,99067.88
2022-10-31T10:39:31.124Z,99063.03
2022-10-31T10:42:00.555Z,99063.44
2022-10-31T10:44:26.955Z,99061.78
2022-10-31T10:47:00.250Z,99058.53
2022-10-31T10:49:41.443Z,99054.88
2022-10-31T10:52:40.921Z,99058.81
2022-10-31T10:55:35.115Z,99061.22
2022-10-31T10:58:04.472Z,99052.50
2022-10-31T11:00:35.504Z,99051.91
2022-10-31T11:03:02.708Z,99041.94
2022-10-31T11:05:38.731Z,99039.94
2022-10-31T11:08:06.043Z,99026.88
2022-10-31T11:10:32.997Z,99025.41
2022-10-31T11:13:20.523Z,99023.78
2022-10-31T11:16:05.527Z,99022.81
2022-10-31T11:18:35.485Z,99013.47
2022-10-31T11:21:03.995Z,98998.41
2022-10-31T11:23:31.199Z,98997.72
2022-10-31T11:25:59.018Z,98999.16
2022-10-31T11:28:27.237Z,98983.34
2022-10-31T11:30:59.245Z,98984.09
2022-10-31T11:33:31.680Z,98978.31
2022-10-31T11:35:59.266Z,98981.88
2022-10-31T11:38:51.084Z,98970.13
2022-10-31T11:41:20.869Z,98967.13
2022-10-31T11:43:51.862Z,98965.03
2022-10-31T11:46:31.084Z,98959.66
2022-10-31T11:48:57.617Z,98962.00
2022-10-31T11:51:31.505Z,98946.16
2022-10-31T11:54:03.957Z,98941.19
2022-10-31T11:56:41.491Z,98939.00
2022-10-31T11:59:19.586Z,98922.69
2022-10-31T12:01:51.659Z,98930.19
2022-10-31T12:04:18.389Z,98924.69
2022-10-31T12:06:46.499Z,98920.69
2022-10-31T12:09:28.829Z,98913.69
2022-10-31T12:12:11.360Z,98925.78
2022-10-31T12:15:19.492Z,98929.09
2022-10-31T12:18:05.338Z,98921.84
2022-10-31T12:20:45.642Z,98918.09
2022-10-31T12:23:39.555Z,98912.88
2022-10-31T12:26:44.606Z,98912.00
2022-10-31T12:29:26.938Z,98898.81
2022-10-31T12:31:56.873Z,98896.81
2022-10-31T12:34:47.725Z,98889.66
2022-10-31T12:37:30.617Z,98883.50
2022-10-31T12:40:05.845Z,98880.31
2022-10-31T12:43:04.808Z,98882.44
2022-10-31T12:45:50.488Z,98874.09
2022-10-31T12:48:38.219Z,98877.63
2022-10-31T12:51:23.170Z,98876.00
2022-10-31T12:54:07.861Z,98851.94
2022-10-31T12:56:34.223Z,98854.66
2022-10-31T12:59:22.414Z,98847.25
2022-10-31T13:01:54.215Z,98839.75
2022-10-31T13:04:41.438Z,98838.44
2022-10-31T13:07:15.108Z,98832.00
2022-10-31T13:10:00.624Z,98822.75
2022-10-31T13:12:32.098Z,98822.97
2022-10-31T13:15:06.872Z,98820.41
2022-10-31T13:17:43.189Z,98824.72
2022-10-31T13:20:09.846Z,98819.59
2022-10-31T13:22:37.920Z,98824.97
2022-10-31T13:25:10.771Z,98819.06
2022-10-31T13:27:50.080Z,98825.47
2022-10-31T13:30:19.925Z,98821.09
2022-10-31T13:32:51.827Z,98823.59
2022-10-31T13:35:28.633Z,98803.75
2022-10-31T13:38:22.933Z,98808.09
2022-10-31T13:40:57.848Z,98801.38
2022-10-31T13:43:43.122Z,98796.44
2022-10-31T13:46:35.130Z,98796.56
2022-10-31T13:49:01.793Z,98799.22
2022-10-31T13:51:33.675Z,98794.22
2022-10-31T13:54:22.764Z,98791.41
2022-10-31T13:56:53.905Z,98788.09
2022-10-31T13:59:23.504Z,98793.66
2022-10-31T14:01:54.255Z,98791.19
2022-10-31T14:04:32.501Z,98784.97
2022-10-31T14:07:11.956Z,98778.09
2022-10-31T14:09:50.863Z,98783.78
2022-10-31T14:12:28.255Z,98790.25
2022-10-31T14:15:14.636Z,98786.94
2022-10-31T14:17:49.734Z,98770.19
2022-10-31T14:20:16.389Z,98764.88
2022-10-31T14:22:43.609Z,98770.78
2022-10-31T14:25:32.791Z,98766.94
2022-10-31T14:28:01.436Z,98763.94
2022-10-31T14:30:30.058Z,98775.16
2022-10-31T14:33:01.120Z,98767.88
2022-10-31T14:35:53.208Z,98768.91
2022-10-31T14:38:47.812Z,98751.06
2022-10-31T14:41:33.408Z,98749.19
2022-10-31T14:44:18.343Z,98754.34
2022-10-31T14:47:06.995Z,98746.47
2022-10-31T14:50:03.385Z,98754.00
2022-10-31T14:52:29.895Z,98756.97
2022-10-31T14:55:00.633Z,98758.41
2022-10-31T14:57:31.944Z,98759.03
2022-10-31T15:00:06.266Z,98749.63
2022-10-31T15:02:40.525Z,98757.13
2022-10-31T15:05:11.008Z,98747.19
2022-10-31T15:07:49.009Z,98755.16
2022-10-31T15:10:30.708Z,98749.56
2022-10-31T15:12:57.707Z,98752.59
2022-10-31T15:15:27.029Z,98747.44
2022-10-31T15:17:59.626Z,98748.47
2022-10-31T15:20:29.472Z,98733.81
2022-10-31T15:22:58.274Z,98756.41
2022-10-31T15:25:26.842Z,98752.59
2022-10-31T15:27:54.096Z,98758.91
2022-10-31T15:30:23.807Z,98747.91
2022-10-31T15:32:58.217Z,98750.91
2022-10-31T15:35:31.044Z,98747.94
2022-10-31T15:37:59.734Z,98746.41
2022-10-31T15:40:27.898Z,98750.00
2022-10-31T15:43:01.450Z,98749.50
2022-10-31T15:45:29.668Z,98750.25
2022-10-31T15:48:05.295Z,98752.63
2022-10-31T15:50:31.995Z,98751.91
2022-10-31T15:52:59.217Z,98750.41
2022-10-31T15:55:28.173Z,98750.31
2022-10-31T15:58:04.481Z,98749.19
2022-10-31T16:00:36.179Z,98754.41
2022-10-31T16:03:15.038Z,98748.28
2022-10-31T16:05:49.812Z,98759.38
2022-10-31T16:08:33.704Z,98764.63
2022-10-31T16:11:15.465Z,98767.00
2022-10-31T16:14:01.384Z,98759.38
2022-10-31T16:16:35.231Z,98759.50
2022-10-31T16:19:05.269Z,98760.38
2022-10-31T16:21:37.367Z,98757.13
2022-10-31T16:24:31.857Z,98755.75
2022-10-31T16:27:06.664Z,98752.09
2022-10-31T16:29:44.226Z,98769.25
2022-10-31T16:32:49.199Z,98771.97
2022-10-31T16:35:22.690Z,98774.88
2022-10-31T16:37:49.231Z,98768.94
2022-10-31T16:40:17.733Z,98766.28
2022-10-31T16:42:45.596Z,98774.38
2022-10-31T16:45:18.884Z,98769.63
2022-10-31T16:47:45.632Z,98774.00
2022-10-31T16:50:24.253Z,98769.50
2022-10-31T16:53:12.494Z,98762.09
2022-10-31T16:55:44.827Z,98756.94
2022-10-31T16:58:17.004Z,98770.38
2022-10-31T17:00:43.522Z,98778.63
2022-10-31T17:03:10.632Z,98776.56
2022-10-31T17:05:37.116Z,98781.34
2022-10-31T17:08:03.826Z,98784.03
2022-10-31T17:10:30.724Z,98782.78
2022-10-31T17:12:57.628Z,98785.28
2022-10-31T17:15:26.427Z,98780.72
2022-10-31T17:17:53.108Z,98779.06
2022-10-31T17:20:23.878Z,98779.06
2022-10-31T17:22:50.872Z,98775.34
2022-10-31T17:25:20.903Z,98774.31
2022-10-31T17:27:47.488Z,98768.56
2022-10-31T17:30:15.488Z,98757.66
2022-10-31T17:32:42.566Z,98753.56
2022-10-31T17:35:10.543Z,98760.13
2022-10-31T17:37:37.149Z,98752.09
2022-10-31T17:40:04.101Z,98752.69
2022-10-31T17:42:30.578Z,98751.28
2022-10-31T17:44:56.895Z,98762.41
2022-10-31T17:47:23.309Z,98760.72
2022-10-31T17:49:49.629Z,98759.50
2022-10-31T17:52:16.069Z,98746.72
2022-10-31T17:54:42.391Z,98762.16
2022-10-31T17:57:08.852Z,98766.47
2022-10-31T17:59:35.286Z,98756.38
2022-10-31T18:02:03.739Z,98768.72
2022-10-31T18:04:30.144Z,98771.97
2022-10-31T18:06:56.578Z,98764.38
2022-10-31T18:09:23.275Z,98765.81
2022-10-31T18:11:49.692Z,98768.66
2022-10-31T18:14:16.108Z,98765.78
2022-10-31T18:16:42.502Z,98756.47
2022-10-31T18:19:13.189Z,98756.28
2022-10-31T18:21:39.792Z,98750.69
2022-10-31T18:24:06.968Z,98748.81
2022-10-31T18:26:33.527Z,98735.06
2022-10-31T18:29:00.514Z,98749.22
2022-10-31T18:31:27.074Z,98743.31
2022-10-31T18:33:56.651Z,98741.22
2022-10-31T18:36:24.424Z,98743.50
2022-10-31T18:38:51.417Z,98743.50
2022-10-31T18:41:18.082Z,98750.03
2022-10-31T18:43:44.537Z,98750.88
2022-10-31T18:46:16.268Z,98744.50
2022-10-31T18:48:44.085Z,98740.38
2022-10-31T18:51:13.600Z,98730.09
2022-10-31T18:53:40.602Z,98706.81
2022-10-31T18:56:08.901Z,98707.22
2022-10-31T18:58:35.630Z,98700.66
2022-10-31T19:01:07.598Z,99073.75
2022-10-31T19:03:34.597Z,99065.38
2022-10-31T19:06:01.569Z,99062.59
2022-10-31T19:11:09.796Z,99063.75
2022-10-31T19:13:37.298Z,99070.59
2022-10-31T19:16:05.762Z,99067.94
2022-10-31T19:18:32.357Z,99068.09
2022-10-31T19:20:58.750Z,99067.88
2022-10-31T19:23:25.289Z,99060.47
2022-10-31T19:25:54.339Z,99053.03
2022-10-31T19:28:20.692Z,99042.56
2022-10-31T19:30:54.545Z,99056.91
2022-10-31T19:33:21.386Z,99055.47
2022-10-31T19:35:47.834Z,99034.00
2022-10-31T19:38:14.651Z,99057.50
2022-10-31T19:40:41.094Z,99066.28
2022-10-31T19:43:07.437Z,99072.56
2022-10-31T19:45:33.940Z,99101.34
2022-10-31T19:48:02.279Z,99124.53
2022-10-31T19:50:28.959Z,99124.75
2022-10-31T19:52:55.422Z,99120.16
2022-10-31T19:55:21.760Z,99146.69
2022-10-31T19:58:01.377Z,99158.41
2022-10-31T20:00:34.799Z,99153.16
2022-10-31T20:03:01.577Z,99147.72
2022-10-31T20:05:30.690Z,99169.91
2022-10-31T20:07:57.189Z,99163.13
2022-10-31T20:10:23.986Z,99181.72
2022-10-31T20:12:50.700Z,99169.75
2022-10-31T20:15:17.261Z,99177.53
2022-10-31T20:17:43.953Z,99165.44
2022-10-31T20:20:10.676Z,99190.13
2022-10-31T20:22:37.525Z,99186.81
2022-10-31T20:25:04.767Z,99181.47
2022-10-31T20:27:31.358Z,99179.81
2022-10-31T20:29:57.909Z,99186.38
2022-10-31T20:32:24.382Z,99183.88
2022-10-31T20:34:50.865Z,99166.38
2022-10-31T20:37:17.377Z,99170.88
2022-10-31T20:39:43.901Z,99185.53
2022-10-31T20:42:10.310Z,99179.72
2022-10-31T20:44:36.931Z,99176.78
2022-10-31T20:47:03.538Z,99176.16
2022-10-31T20:49:30.748Z,99175.78
2022-10-31T20:51:57.166Z,99176.22
2022-10-31T20:54:23.707Z,99173.47
2022-10-31T20:56:50.057Z,99180.19
2022-10-31T20:59:16.554Z,99182.00
2022-10-31T21:01:43.325Z,99177.69
2022-10-31T21:04:10.074Z,99182.88
2022-10-31T21:06:36.451Z,99182.88
2022-10-31T21:09:03.083Z,99177.91
2022-10-31T21:11:31.068Z,99177.41
2022-10-31T21:13:59.039Z,99167.09
2022-10-31T21:16:32.845Z,99167.97
2022-10-31T21:19:00.701Z,99161.69
2022-10-31T21:21:34.671Z,99163.09
2022-10-31T21:24:07.473Z,99171.75
2022-10-31T21:26:37.599Z,99170.06
2022-10-31T21:29:05.341Z,99171.09
2022-10-31T21:31:32.550Z,99174.13
2022-10-31T21:33:58.974Z,99172.28
2022-10-31T21:36:26.234Z,99166.50
2022-10-31T21:38:54.443Z,99155.38
2022-10-31T21:41:21.797Z,99163.53
2022-10-31T21:43:50.335Z,99155.28
2022-10-31T21:46:19.754Z,99158.31
2022-10-31T21:48:46.962Z,99149.56
2022-10-31T21:51:35.112Z,99149.94
2022-10-31T21:54:01.942Z,99150.13
2022-10-31T21:56:28.876Z,99145.34
2022-10-31T21:58:55.388Z,99145.13
2022-10-31T22:01:23.088Z,99146.00
2022-10-31T22:03:49.600Z,99159.88
2022-10-31T22:06:16.454Z,99148.84
2022-10-31T22:08:43.281Z,99151.25
2022-10-31T22:11:15.036Z,99148.75
2022-10-31T22:13:44.883Z,99150.59
2022-10-31T22:16:13.696Z,99157.31
2022-10-31T22:18:41.018Z,99142.28
2022-10-31T22:21:19.774Z,99161.63
2022-10-31T22:24:00.609Z,99150.13
2022-10-31T22:26:30.138Z,99151.31
2022-10-31T22:28:57.580Z,99154.50
2022-10-31T22:31:24.754Z,99148.56
2022-10-31T22:33:51.860Z,99134.56
2022-10-31T22:36:21.098Z,99136.03
2022-10-31T22:38:48.228Z,99136.22
2022-10-31T22:41:17.361Z,99090.50
2022-10-31T22:43:44.188Z,99067.72
2022-10-31T22:46:13.455Z,99069.53
2022-10-31T22:48:42.703Z,99081.22
2022-10-31T22:51:20.016Z,99069.28
2022-10-31T22:53:47.045Z,99067.59
2022-10-31T22:56:17.873Z,99070.00
2022-10-31T22:58:44.481Z,99076.81
2022-10-31T23:01:13.523Z,99085.44
2022-10-31T23:03:40.654Z,99082.53
2022-10-31T23:06:09.749Z,99079.41
2022-10-31T23:08:37.403Z,99072.31
2022-10-31T23:11:30.046Z,99060.63
2022-10-31T23:13:57.115Z,99066.50
2022-10-31T23:16:24.373Z,99067.69
2022-10-31T23:18:50.840Z,99065.59
2022-10-31T23:21:17.504Z,99063.28
2022-10-31T23:23:44.135Z,99067.78
2022-10-31T23:26:10.582Z,99060.78
2022-10-31T23:28:37.020Z,99070.78
2022-10-31T23:31:03.564Z,99076.97
2022-10-31T23:33:31.587Z,99069.50
2022-10-31T23:35:58.063Z,99067.41
2022-10-31T23:38:24.539Z,99067.41
2022-10-31T23:40:50.943Z,99064.91
2022-10-31T23:43:17.440Z,99083.19
2022-10-31T23:45:43.961Z,99087.91
2022-10-31T23:48:10.811Z,99092.75
2022-10-31T23:50:37.954Z,99088.88
2022-10-31T23:53:04.407Z,99082.28
2022-10-31T23:55:31.137Z,99083.28
2022-10-31T23:57:57.548Z,99082.06
